Hopeville, Connecticut
Current Conditions -  °F | °C
As of 11:16 PM on Tuesday 27 Jan 2015 (Local Time) from KIJD Reporting Station
Light Snow Light Snow  
Wind Chill:   Ceiling: 2900
Heat Index: 14°   Visibility: 3mi
Dew Point:   Wind: 10mph
Humidity: 71%   Direction: 320°NW
Pressure: 29.73"   Gusts: 21mph
Location:  41.6042°N, 71.9701°W
Report Text: KIJD 280416Z AUTO 32009G18KT 3SM -SN OVC029 M10/M14 A2973 RMK AO2 P0000 T11001144
Loading
Personal Weather Stations






























Interactive Weather Map New forecast layout! Learn more

10-Day Weather Forecast

Advertisements
Track Severe Weather on mobile